Seneimaru — JG5357 — position and weather

sailwx.info

Track history (hours):
 
Tides and Currents Weather Stations Pressure Air Temp Water Temp Dewpoint Dewpoint Depression Visibility Wind Speed Wind Dir Waves Ship Positions

Seneimaru

Last reported at 2018-Apr-20 20:00 UTC. Time now 2018-Apr-20 20:11 UTC.
Position N 35°30' E 139°43'.

Length 72 m; draft 5.9 m.

Type: Cargo ship. MMSI: 431100477.

Date/timePositionNaut miles runAvg speedWind from/ knotsBaromVisibWave heightAir tempDewpointWater temp
2018-Apr-20 20:00N 35°30' E 139°43'0 0.0
2018-Apr-20 19:30N 35°30' E 139°43'0 0.0
2018-Apr-20 19:00N 35°30' E 139°43'0 0.0
2018-Apr-20 18:29N 35°30' E 139°43'0 0.0
2018-Apr-20 18:00N 35°30' E 139°43'0 0.0
2018-Apr-20 17:30N 35°30' E 139°43'0 0.0
2018-Apr-20 17:00N 35°30' E 139°43'0 0.0
2018-Apr-20 16:30N 35°30' E 139°43'0 0.0
2018-Apr-20 16:00N 35°30' E 139°43'0 0.0
2018-Apr-20 15:30N 35°30' E 139°43'0 0.0
2018-Apr-20 15:00N 35°30' E 139°43'0 0.0
2018-Apr-20 14:30N 35°30' E 139°43'0 0.0
2018-Apr-20 14:00N 35°30' E 139°43'0 0.0
2018-Apr-20 13:30N 35°30' E 139°43'0 0.0
2018-Apr-20 13:00N 35°30' E 139°43'0 0.0
2018-Apr-20 12:30N 35°30' E 139°43'0 0.0
2018-Apr-20 12:00N 35°30' E 139°43'0 0.0
2018-Apr-20 11:30N 35°30' E 139°43'0 0.0
2018-Apr-20 11:00N 35°30' E 139°43'0 0.0
2018-Apr-20 10:30N 35°30' E 139°43'0 0.0
2018-Apr-20 10:00N 35°30' E 139°43'0 0.0
2018-Apr-20 09:30N 35°30' E 139°43'0 0.0
2018-Apr-20 09:00N 35°30' E 139°43'0 0.0
2018-Apr-20 08:30N 35°30' E 139°43'0 0.0
2018-Apr-20 08:00N 35°30' E 139°43'0 0.0
2018-Apr-20 07:30N 35°30' E 139°43'0 0.0
2018-Apr-20 07:00N 35°30' E 139°43'0 0.0
2018-Apr-20 06:28N 35°30' E 139°43'0 0.0
2018-Apr-20 06:00N 35°30' E 139°43'0 0.0
2018-Apr-20 05:30N 35°30' E 139°43'0 0.0
2018-Apr-20 05:00N 35°30' E 139°43'0 0.0
2018-Apr-20 04:30N 35°30' E 139°43'0 0.0
2018-Apr-20 04:00N 35°30' E 139°43'0 0.0
2018-Apr-20 03:30N 35°30' E 139°43'0 0.0
2018-Apr-20 03:00N 35°30' E 139°43'0 0.0
2018-Apr-20 02:30N 35°30' E 139°43'0 0.0
2018-Apr-20 02:00N 35°30' E 139°43'1 2.8
2018-Apr-20 01:30N 35°29' E 139°42'3 5.2
2018-Apr-20 01:00N 35°27' E 139°44'0 0.5
2018-Apr-20 00:30N 35°27' E 139°44'1 1.9
2018-Apr-20 00:00N 35°26' E 139°44'4 8.4
2018-Apr-19 23:30N 35°22' E 139°45'5 9.3
2018-Apr-19 23:00N 35°17' E 139°45'510.2
2018-Apr-19 22:30N 35°12' E 139°47'511.0
2018-Apr-19 22:01N 35°07' E 139°45'611.0
2018-Apr-19 21:30N 35°02' E 139°44'  
2018-Apr-15 21:47N 34°53' E 139°48'612.1
2018-Apr-15 21:19N 34°57' E 139°43'411.4
2018-Apr-15 21:00N 35°00' E 139°42'612.2
2018-Apr-15 20:30N 35°06' E 139°44'612.5
2018-Apr-15 20:00N 35°12' E 139°46'611.6
2018-Apr-15 19:30N 35°18' E 139°44'4 8.1
2018-Apr-15 18:59N 35°22' E 139°44'0 0.1
2018-Apr-15 18:29N 35°22' E 139°44'0 0.0
2018-Apr-15 17:59N 35°22' E 139°44'0 0.0
2018-Apr-15 17:29N 35°22' E 139°44'0 0.0
2018-Apr-15 16:59N 35°22' E 139°44'0 0.0
2018-Apr-15 16:29N 35°22' E 139°44'0 0.0
2018-Apr-15 15:59N 35°22' E 139°44'0 0.0
2018-Apr-15 15:29N 35°22' E 139°44'0 0.0
2018-Apr-15 14:59N 35°22' E 139°44'0 0.0
2018-Apr-15 14:29N 35°22' E 139°44'0 0.1
2018-Apr-15 13:59N 35°22' E 139°44'0 0.0
2018-Apr-15 13:26N 35°22' E 139°44'0 0.1
2018-Apr-15 12:59N 35°22' E 139°44'0 0.0
2018-Apr-15 12:29N 35°22' E 139°44'0 0.0
2018-Apr-15 11:56N 35°22' E 139°44'0 0.0
2018-Apr-15 11:29N 35°22' E 139°44'0 0.0
2018-Apr-15 10:59N 35°22' E 139°44'0 0.0
2018-Apr-15 10:29N 35°22' E 139°44'0 0.1
2018-Apr-15 09:59N 35°22' E 139°44'0 0.1
2018-Apr-15 09:26N 35°22' E 139°44'0 0.1
2018-Apr-15 08:59N 35°22' E 139°44'0 0.0
2018-Apr-15 08:29N 35°22' E 139°44'0 0.1
2018-Apr-15 07:59N 35°22' E 139°44'0 0.0
2018-Apr-15 07:26N 35°22' E 139°44'0 0.0
2018-Apr-15 06:47N 35°22' E 139°44'0 0.0
2018-Apr-15 06:29N 35°22' E 139°44'0 0.0
2018-Apr-15 05:59N 35°22' E 139°44'0 0.0
2018-Apr-15 05:29N 35°22' E 139°44'0 0.0
2018-Apr-15 04:47N 35°22' E 139°44'0 0.0
2018-Apr-15 04:26N 35°22' E 139°44'0 0.0
2018-Apr-15 03:59N 35°22' E 139°44'0 0.0
2018-Apr-15 03:29N 35°22' E 139°44'0 0.0
2018-Apr-15 02:59N 35°22' E 139°44'0 0.0
2018-Apr-15 02:26N 35°22' E 139°44'0 0.0
2018-Apr-15 01:59N 35°22' E 139°44'0 0.0
2018-Apr-15 01:23N 35°22' E 139°44'0 0.0
2018-Apr-15 00:59N 35°22' E 139°44'0 0.0
2018-Apr-15 00:29N 35°22' E 139°44'0 0.0
2018-Apr-14 23:59N 35°22' E 139°44'0 0.0
2018-Apr-14 23:26N 35°22' E 139°44'0 0.1
2018-Apr-14 22:59N 35°22' E 139°44'0 0.0
2018-Apr-14 22:29N 35°22' E 139°44'0 0.0
2018-Apr-14 21:59N 35°22' E 139°44'0 0.0
2018-Apr-14 21:26N 35°22' E 139°44'0 0.1
2018-Apr-14 20:59N 35°22' E 139°44'0 0.0
2018-Apr-14 20:29N 35°22' E 139°44'0 0.0
2018-Apr-14 19:59N 35°22' E 139°44'0 0.0
2018-Apr-14 19:29N 35°22' E 139°44'0 0.0
2018-Apr-14 18:59N 35°22' E 139°44'0 0.0
2018-Apr-14 18:26N 35°22' E 139°44'0 0.0
2018-Apr-14 17:59N 35°22' E 139°44'0 0.0
2018-Apr-14 17:29N 35°22' E 139°44'0 0.0
2018-Apr-14 16:59N 35°22' E 139°44'0 0.0
2018-Apr-14 16:29N 35°22' E 139°44'0 0.0
2018-Apr-14 15:59N 35°22' E 139°44'0 0.0
2018-Apr-14 15:26N 35°22' E 139°44'0 0.0
2018-Apr-14 14:56N 35°22' E 139°44'0 0.0
2018-Apr-14 14:29N 35°22' E 139°44'0 0.0
2018-Apr-14 13:59N 35°22' E 139°44'0 0.0
2018-Apr-14 13:29N 35°22' E 139°44'0 0.0
2018-Apr-14 12:59N 35°22' E 139°44'0 0.0
2018-Apr-14 12:29N 35°22' E 139°44'0 0.0
2018-Apr-14 11:59N 35°22' E 139°44'0 0.0
2018-Apr-14 11:29N 35°22' E 139°44'0 0.0
2018-Apr-14 10:59N 35°22' E 139°44'0 0.0
2018-Apr-14 10:29N 35°22' E 139°44'0 0.1
2018-Apr-14 09:59N 35°22' E 139°44'0 0.0
2018-Apr-14 09:29N 35°22' E 139°44'0 0.1
2018-Apr-14 08:59N 35°22' E 139°44'0 0.0
2018-Apr-14 08:29N 35°22' E 139°44'0 0.0
2018-Apr-14 07:59N 35°22' E 139°44'0 0.1
2018-Apr-14 07:29N 35°22' E 139°44'0 0.1
2018-Apr-14 06:59N 35°22' E 139°44'0 0.0
2018-Apr-14 06:29N 35°22' E 139°44'0 0.0
2018-Apr-14 05:56N 35°22' E 139°44'0 0.0
2018-Apr-14 05:29N 35°22' E 139°44'0 0.0
2018-Apr-14 05:00N 35°22' E 139°44'0 0.0
2018-Apr-14 04:30N 35°22' E 139°44'0 0.1
2018-Apr-14 04:00N 35°22' E 139°44'2 4.8
2018-Apr-14 03:30N 35°24' E 139°45'611.4
2018-Apr-14 03:00N 35°30' E 139°48'4 8.0
2018-Apr-14 02:30N 35°30' E 139°43'0 0.2
2018-Apr-14 02:00N 35°30' E 139°43'0 0.0
2018-Apr-14 01:30N 35°30' E 139°43'0 0.0
2018-Apr-14 01:00N 35°30' E 139°43'0 0.0
2018-Apr-14 00:30N 35°30' E 139°43'0 0.0
2018-Apr-14 00:00N 35°30' E 139°43'0 0.0
2018-Apr-13 23:30N 35°30' E 139°43'0 0.0
2018-Apr-13 23:00N 35°30' E 139°43'0 0.0
2018-Apr-13 22:30N 35°30' E 139°43'0 0.0
2018-Apr-13 22:00N 35°30' E 139°43'0 0.0
2018-Apr-13 21:30N 35°30' E 139°43'0 0.0
2018-Apr-13 21:00N 35°30' E 139°43'0 0.0
2018-Apr-13 20:30N 35°30' E 139°43'0 0.0
2018-Apr-13 20:00N 35°30' E 139°43'0 0.0
2018-Apr-13 19:30N 35°30' E 139°43'0 0.0
2018-Apr-13 19:00N 35°30' E 139°43'0 0.0
2018-Apr-13 18:30N 35°30' E 139°43'0 0.0
2018-Apr-13 18:00N 35°30' E 139°43'0 0.0
2018-Apr-13 17:30N 35°30' E 139°43'0 0.0
2018-Apr-13 17:00N 35°30' E 139°43'0 0.0
2018-Apr-13 16:29N 35°30' E 139°43'0 0.0
2018-Apr-13 16:00N 35°30' E 139°43'0 0.0
2018-Apr-13 15:30N 35°30' E 139°43'0 0.0
2018-Apr-13 15:00N 35°30' E 139°43'0 0.0
2018-Apr-13 14:30N 35°30' E 139°43'0 0.0
2018-Apr-13 14:00N 35°30' E 139°43'0 0.0
2018-Apr-13 13:31N 35°30' E 139°43'0 0.0
2018-Apr-13 13:00N 35°30' E 139°43'0 0.0
2018-Apr-13 12:30N 35°30' E 139°43'0 0.0
2018-Apr-13 11:30N 35°30' E 139°43'0 0.0
2018-Apr-13 11:00N 35°30' E 139°43'0 0.0
2018-Apr-13 10:30N 35°30' E 139°43'0 0.0
2018-Apr-13 10:00N 35°30' E 139°43'0 0.0
2018-Apr-13 09:30N 35°30' E 139°43'0 0.0
2018-Apr-13 09:00N 35°30' E 139°43'0 0.0
2018-Apr-13 08:30N 35°30' E 139°43'0 0.0
2018-Apr-13 08:00N 35°30' E 139°43'0 0.0
2018-Apr-13 07:30N 35°30' E 139°43'0 0.0
2018-Apr-13 07:00N 35°30' E 139°43'0 0.1
2018-Apr-13 06:30N 35°30' E 139°43'3 5.9
2018-Apr-13 06:00N 35°27' E 139°43'4 8.2
2018-Apr-13 05:30N 35°23' E 139°44'0 1.0
2018-Apr-13 05:00N 35°23' E 139°44'0 0.0
2018-Apr-13 04:27N 35°23' E 139°44'0 0.1
2018-Apr-13 04:00N 35°23' E 139°44'0 0.0
2018-Apr-13 03:27N 35°23' E 139°44'0 0.0
2018-Apr-13 02:57N 35°23' E 139°44'0 0.1
2018-Apr-13 02:30N 35°23' E 139°44'0 0.1
2018-Apr-13 02:00N 35°23' E 139°44'0 0.1
2018-Apr-13 01:30N 35°23' E 139°44'0 0.0
2018-Apr-13 01:00N 35°23' E 139°44'0 0.0
2018-Apr-13 00:30N 35°23' E 139°44'0 0.0
2018-Apr-13 00:00N 35°23' E 139°44'0 0.0
2018-Apr-12 23:30N 35°23' E 139°44'0 0.0
2018-Apr-12 23:00N 35°23' E 139°44'0 0.0
2018-Apr-12 22:30N 35°23' E 139°44'0 0.0
2018-Apr-12 22:00N 35°23' E 139°44'0 0.1
2018-Apr-12 21:30N 35°23' E 139°44'4 7.1
2018-Apr-12 21:00N 35°19' E 139°44'611.3
2018-Apr-12 20:30N 35°14' E 139°47'611.8
2018-Apr-12 20:00N 35°08' E 139°45'611.6
2018-Apr-12 19:30N 35°04' E 139°40'612.3
2018-Apr-12 19:00N 35°00' E 139°34'2413.3
2018-Apr-12 17:12N 34°45' E 139°12'512.1
2018-Apr-12 16:48N 34°41' E 139°08'412.5
2018-Apr-12 16:30N 34°39' E 139°05'612.3
2018-Apr-12 15:59N 34°34' E 138°60'612.1
2018-Apr-12 15:28N 34°32' E 138°52'713.2
2018-Apr-12 14:57N 34°33' E 138°44'2012.5
2018-Apr-12 13:19N 34°32' E 138°19'512.8
2018-Apr-12 12:56N 34°32' E 138°13'60 4.3
2018-Apr-11 22:56N 34°39' E 137°01'91 8.5
2018-Apr-11 12:12N 34°32' E 138°51'1 6.9
2018-Apr-11 12:00N 34°32' E 138°53'4 6.5
2018-Apr-11 11:27N 34°33' E 138°57'5 6.6
2018-Apr-11 10:44N 34°36' E 139°01'4 6.8
2018-Apr-11 10:07N 34°39' E 139°05'1 6.8
2018-Apr-11 09:59N 34°39' E 139°06'26 7.7
2018-Apr-11 06:34N 34°57' E 139°29'1 8.0
2018-Apr-11 06:25N 34°58' E 139°30'3 8.0
2018-Apr-11 06:00N 35°00' E 139°33'4 8.6
2018-Apr-11 05:30N 35°03' E 139°37'5 9.3
2018-Apr-11 05:00N 35°06' E 139°41'5 9.1
2018-Apr-11 04:30N 35°09' E 139°45'5 9.4
2018-Apr-11 04:00N 35°14' E 139°46'510.1
2018-Apr-11 03:30N 35°19' E 139°44'510.0
2018-Apr-11 03:00N 35°24' E 139°43'510.5
2018-Apr-11 02:30N 35°28' E 139°46'3 5.5
2018-Apr-11 02:00N 35°30' E 139°44'1 2.2
2018-Apr-11 01:30N 35°30' E 139°43'0 0.0
2018-Apr-11 01:00N 35°30' E 139°43'0 0.0
2018-Apr-11 00:30N 35°30' E 139°43'0 0.0
2018-Apr-11 00:00N 35°30' E 139°43'0 0.0
2018-Apr-10 23:30N 35°30' E 139°43'0 0.0
2018-Apr-10 23:00N 35°30' E 139°43'0 0.0
2018-Apr-10 22:30N 35°30' E 139°43'0 0.0
2018-Apr-10 22:00N 35°30' E 139°43'0 0.0
2018-Apr-10 21:30N 35°30' E 139°43'0 0.8
2018-Apr-10 21:00N 35°30' E 139°43'3 6.4
2018-Apr-10 20:30N 35°27' E 139°43'  
Track history (hours):
 
Tides and Currents Weather Stations Pressure Air Temp Water Temp Dewpoint Dewpoint Depression Visibility Wind Speed Wind Dir Waves Ship Positions

Seneimaru

Last reported at 2018-Apr-20 20:00 UTC. Time now 2018-Apr-20 20:11 UTC.
Position N 35°30' E 139°43'.

Length 72 m; draft 5.9 m.

Type: Cargo ship. MMSI: 431100477.

Date/timePositionNaut miles runAvg speedWind from/ knotsBaromVisibWave heightAir tempDewpointWater temp
2018-Apr-20 20:00N 35°30' E 139°43'0 0.0
2018-Apr-20 19:30N 35°30' E 139°43'0 0.0
2018-Apr-20 19:00N 35°30' E 139°43'0 0.0
2018-Apr-20 18:29N 35°30' E 139°43'0 0.0
2018-Apr-20 18:00N 35°30' E 139°43'0 0.0
2018-Apr-20 17:30N 35°30' E 139°43'0 0.0
2018-Apr-20 17:00N 35°30' E 139°43'0 0.0
2018-Apr-20 16:30N 35°30' E 139°43'0 0.0
2018-Apr-20 16:00N 35°30' E 139°43'0 0.0
2018-Apr-20 15:30N 35°30' E 139°43'0 0.0
2018-Apr-20 15:00N 35°30' E 139°43'0 0.0
2018-Apr-20 14:30N 35°30' E 139°43'0 0.0
2018-Apr-20 14:00N 35°30' E 139°43'0 0.0
2018-Apr-20 13:30N 35°30' E 139°43'0 0.0
2018-Apr-20 13:00N 35°30' E 139°43'0 0.0
2018-Apr-20 12:30N 35°30' E 139°43'0 0.0
2018-Apr-20 12:00N 35°30' E 139°43'0 0.0
2018-Apr-20 11:30N 35°30' E 139°43'0 0.0
2018-Apr-20 11:00N 35°30' E 139°43'0 0.0
2018-Apr-20 10:30N 35°30' E 139°43'0 0.0
2018-Apr-20 10:00N 35°30' E 139°43'0 0.0
2018-Apr-20 09:30N 35°30' E 139°43'0 0.0
2018-Apr-20 09:00N 35°30' E 139°43'0 0.0
2018-Apr-20 08:30N 35°30' E 139°43'0 0.0
2018-Apr-20 08:00N 35°30' E 139°43'0 0.0
2018-Apr-20 07:30N 35°30' E 139°43'0 0.0
2018-Apr-20 07:00N 35°30' E 139°43'0 0.0
2018-Apr-20 06:28N 35°30' E 139°43'0 0.0
2018-Apr-20 06:00N 35°30' E 139°43'0 0.0
2018-Apr-20 05:30N 35°30' E 139°43'0 0.0
2018-Apr-20 05:00N 35°30' E 139°43'0 0.0
2018-Apr-20 04:30N 35°30' E 139°43'0 0.0
2018-Apr-20 04:00N 35°30' E 139°43'0 0.0
2018-Apr-20 03:30N 35°30' E 139°43'0 0.0
2018-Apr-20 03:00N 35°30' E 139°43'0 0.0
2018-Apr-20 02:30N 35°30' E 139°43'0 0.0
2018-Apr-20 02:00N 35°30' E 139°43'1 2.8
2018-Apr-20 01:30N 35°29' E 139°42'3 5.2
2018-Apr-20 01:00N 35°27' E 139°44'0 0.5
2018-Apr-20 00:30N 35°27' E 139°44'1 1.9
2018-Apr-20 00:00N 35°26' E 139°44'4 8.4
2018-Apr-19 23:30N 35°22' E 139°45'5 9.3
2018-Apr-19 23:00N 35°17' E 139°45'510.2
2018-Apr-19 22:30N 35°12' E 139°47'511.0
2018-Apr-19 22:01N 35°07' E 139°45'611.0
2018-Apr-19 21:30N 35°02' E 139°44'  
2018-Apr-15 21:47N 34°53' E 139°48'612.1
2018-Apr-15 21:19N 34°57' E 139°43'411.4
2018-Apr-15 21:00N 35°00' E 139°42'612.2
2018-Apr-15 20:30N 35°06' E 139°44'612.5
2018-Apr-15 20:00N 35°12' E 139°46'611.6
2018-Apr-15 19:30N 35°18' E 139°44'4 8.1
2018-Apr-15 18:59N 35°22' E 139°44'0 0.1
2018-Apr-15 18:29N 35°22' E 139°44'0 0.0
2018-Apr-15 17:59N 35°22' E 139°44'0 0.0
2018-Apr-15 17:29N 35°22' E 139°44'0 0.0
2018-Apr-15 16:59N 35°22' E 139°44'0 0.0
2018-Apr-15 16:29N 35°22' E 139°44'0 0.0
2018-Apr-15 15:59N 35°22' E 139°44'0 0.0
2018-Apr-15 15:29N 35°22' E 139°44'0 0.0
2018-Apr-15 14:59N 35°22' E 139°44'0 0.0
2018-Apr-15 14:29N 35°22' E 139°44'0 0.1
2018-Apr-15 13:59N 35°22' E 139°44'0 0.0
2018-Apr-15 13:26N 35°22' E 139°44'0 0.1
2018-Apr-15 12:59N 35°22' E 139°44'0 0.0
2018-Apr-15 12:29N 35°22' E 139°44'0 0.0
2018-Apr-15 11:56N 35°22' E 139°44'0 0.0
2018-Apr-15 11:29N 35°22' E 139°44'0 0.0
2018-Apr-15 10:59N 35°22' E 139°44'0 0.0
2018-Apr-15 10:29N 35°22' E 139°44'0 0.1
2018-Apr-15 09:59N 35°22' E 139°44'0 0.1
2018-Apr-15 09:26N 35°22' E 139°44'0 0.1
2018-Apr-15 08:59N 35°22' E 139°44'0 0.0
2018-Apr-15 08:29N 35°22' E 139°44'0 0.1
2018-Apr-15 07:59N 35°22' E 139°44'0 0.0
2018-Apr-15 07:26N 35°22' E 139°44'0 0.0
2018-Apr-15 06:47N 35°22' E 139°44'0 0.0
2018-Apr-15 06:29N 35°22' E 139°44'0 0.0
2018-Apr-15 05:59N 35°22' E 139°44'0 0.0
2018-Apr-15 05:29N 35°22' E 139°44'0 0.0
2018-Apr-15 04:47N 35°22' E 139°44'0 0.0
2018-Apr-15 04:26N 35°22' E 139°44'0 0.0
2018-Apr-15 03:59N 35°22' E 139°44'0 0.0
2018-Apr-15 03:29N 35°22' E 139°44'0 0.0
2018-Apr-15 02:59N 35°22' E 139°44'0 0.0
2018-Apr-15 02:26N 35°22' E 139°44'0 0.0
2018-Apr-15 01:59N 35°22' E 139°44'0 0.0
2018-Apr-15 01:23N 35°22' E 139°44'0 0.0
2018-Apr-15 00:59N 35°22' E 139°44'0 0.0
2018-Apr-15 00:29N 35°22' E 139°44'0 0.0
2018-Apr-14 23:59N 35°22' E 139°44'0 0.0
2018-Apr-14 23:26N 35°22' E 139°44'0 0.1
2018-Apr-14 22:59N 35°22' E 139°44'0 0.0
2018-Apr-14 22:29N 35°22' E 139°44'0 0.0
2018-Apr-14 21:59N 35°22' E 139°44'0 0.0
2018-Apr-14 21:26N 35°22' E 139°44'0 0.1
2018-Apr-14 20:59N 35°22' E 139°44'0 0.0
2018-Apr-14 20:29N 35°22' E 139°44'0 0.0
2018-Apr-14 19:59N 35°22' E 139°44'0 0.0
2018-Apr-14 19:29N 35°22' E 139°44'0 0.0
2018-Apr-14 18:59N 35°22' E 139°44'0 0.0
2018-Apr-14 18:26N 35°22' E 139°44'0 0.0
2018-Apr-14 17:59N 35°22' E 139°44'0 0.0
2018-Apr-14 17:29N 35°22' E 139°44'0 0.0
2018-Apr-14 16:59N 35°22' E 139°44'0 0.0
2018-Apr-14 16:29N 35°22' E 139°44'0 0.0
2018-Apr-14 15:59N 35°22' E 139°44'0 0.0
2018-Apr-14 15:26N 35°22' E 139°44'0 0.0
2018-Apr-14 14:56N 35°22' E 139°44'0 0.0
2018-Apr-14 14:29N 35°22' E 139°44'0 0.0
2018-Apr-14 13:59N 35°22' E 139°44'0 0.0
2018-Apr-14 13:29N 35°22' E 139°44'0 0.0
2018-Apr-14 12:59N 35°22' E 139°44'0 0.0
2018-Apr-14 12:29N 35°22' E 139°44'0 0.0
2018-Apr-14 11:59N 35°22' E 139°44'0 0.0
2018-Apr-14 11:29N 35°22' E 139°44'0 0.0
2018-Apr-14 10:59N 35°22' E 139°44'0 0.0
2018-Apr-14 10:29N 35°22' E 139°44'0 0.1
2018-Apr-14 09:59N 35°22' E 139°44'0 0.0
2018-Apr-14 09:29N 35°22' E 139°44'0 0.1
2018-Apr-14 08:59N 35°22' E 139°44'0 0.0
2018-Apr-14 08:29N 35°22' E 139°44'0 0.0
2018-Apr-14 07:59N 35°22' E 139°44'0 0.1
2018-Apr-14 07:29N 35°22' E 139°44'0 0.1
2018-Apr-14 06:59N 35°22' E 139°44'0 0.0
2018-Apr-14 06:29N 35°22' E 139°44'0 0.0
2018-Apr-14 05:56N 35°22' E 139°44'0 0.0
2018-Apr-14 05:29N 35°22' E 139°44'0 0.0
2018-Apr-14 05:00N 35°22' E 139°44'0 0.0
2018-Apr-14 04:30N 35°22' E 139°44'0 0.1
2018-Apr-14 04:00N 35°22' E 139°44'2 4.8
2018-Apr-14 03:30N 35°24' E 139°45'611.4
2018-Apr-14 03:00N 35°30' E 139°48'4 8.0
2018-Apr-14 02:30N 35°30' E 139°43'0 0.2
2018-Apr-14 02:00N 35°30' E 139°43'0 0.0
2018-Apr-14 01:30N 35°30' E 139°43'0 0.0
2018-Apr-14 01:00N 35°30' E 139°43'0 0.0
2018-Apr-14 00:30N 35°30' E 139°43'0 0.0
2018-Apr-14 00:00N 35°30' E 139°43'0 0.0
2018-Apr-13 23:30N 35°30' E 139°43'0 0.0
2018-Apr-13 23:00N 35°30' E 139°43'0 0.0
2018-Apr-13 22:30N 35°30' E 139°43'0 0.0
2018-Apr-13 22:00N 35°30' E 139°43'0 0.0
2018-Apr-13 21:30N 35°30' E 139°43'0 0.0
2018-Apr-13 21:00N 35°30' E 139°43'0 0.0
2018-Apr-13 20:30N 35°30' E 139°43'0 0.0
2018-Apr-13 20:00N 35°30' E 139°43'0 0.0
2018-Apr-13 19:30N 35°30' E 139°43'0 0.0
2018-Apr-13 19:00N 35°30' E 139°43'0 0.0
2018-Apr-13 18:30N 35°30' E 139°43'0 0.0
2018-Apr-13 18:00N 35°30' E 139°43'0 0.0
2018-Apr-13 17:30N 35°30' E 139°43'0 0.0
2018-Apr-13 17:00N 35°30' E 139°43'0 0.0
2018-Apr-13 16:29N 35°30' E 139°43'0 0.0
2018-Apr-13 16:00N 35°30' E 139°43'0 0.0
2018-Apr-13 15:30N 35°30' E 139°43'0 0.0
2018-Apr-13 15:00N 35°30' E 139°43'0 0.0
2018-Apr-13 14:30N 35°30' E 139°43'0 0.0
2018-Apr-13 14:00N 35°30' E 139°43'0 0.0
2018-Apr-13 13:31N 35°30' E 139°43'0 0.0
2018-Apr-13 13:00N 35°30' E 139°43'0 0.0
2018-Apr-13 12:30N 35°30' E 139°43'0 0.0
2018-Apr-13 11:30N 35°30' E 139°43'0 0.0
2018-Apr-13 11:00N 35°30' E 139°43'0 0.0
2018-Apr-13 10:30N 35°30' E 139°43'0 0.0
2018-Apr-13 10:00N 35°30' E 139°43'0 0.0
2018-Apr-13 09:30N 35°30' E 139°43'0 0.0
2018-Apr-13 09:00N 35°30' E 139°43'0 0.0
2018-Apr-13 08:30N 35°30' E 139°43'0 0.0
2018-Apr-13 08:00N 35°30' E 139°43'0 0.0
2018-Apr-13 07:30N 35°30' E 139°43'0 0.0
2018-Apr-13 07:00N 35°30' E 139°43'0 0.1
2018-Apr-13 06:30N 35°30' E 139°43'3 5.9
2018-Apr-13 06:00N 35°27' E 139°43'4 8.2
2018-Apr-13 05:30N 35°23' E 139°44'0 1.0
2018-Apr-13 05:00N 35°23' E 139°44'0 0.0
2018-Apr-13 04:27N 35°23' E 139°44'0 0.1
2018-Apr-13 04:00N 35°23' E 139°44'0 0.0
2018-Apr-13 03:27N 35°23' E 139°44'0 0.0
2018-Apr-13 02:57N 35°23' E 139°44'0 0.1
2018-Apr-13 02:30N 35°23' E 139°44'0 0.1
2018-Apr-13 02:00N 35°23' E 139°44'0 0.1
2018-Apr-13 01:30N 35°23' E 139°44'0 0.0
2018-Apr-13 01:00N 35°23' E 139°44'0 0.0
2018-Apr-13 00:30N 35°23' E 139°44'0 0.0
2018-Apr-13 00:00N 35°23' E 139°44'0 0.0
2018-Apr-12 23:30N 35°23' E 139°44'0 0.0
2018-Apr-12 23:00N 35°23' E 139°44'0 0.0
2018-Apr-12 22:30N 35°23' E 139°44'0 0.0
2018-Apr-12 22:00N 35°23' E 139°44'0 0.1
2018-Apr-12 21:30N 35°23' E 139°44'4 7.1
2018-Apr-12 21:00N 35°19' E 139°44'611.3
2018-Apr-12 20:30N 35°14' E 139°47'611.8
2018-Apr-12 20:00N 35°08' E 139°45'611.6
2018-Apr-12 19:30N 35°04' E 139°40'612.3
2018-Apr-12 19:00N 35°00' E 139°34'2413.3
2018-Apr-12 17:12N 34°45' E 139°12'512.1
2018-Apr-12 16:48N 34°41' E 139°08'412.5
2018-Apr-12 16:30N 34°39' E 139°05'612.3
2018-Apr-12 15:59N 34°34' E 138°60'612.1
2018-Apr-12 15:28N 34°32' E 138°52'713.2
2018-Apr-12 14:57N 34°33' E 138°44'2012.5
2018-Apr-12 13:19N 34°32' E 138°19'512.8
2018-Apr-12 12:56N 34°32' E 138°13'60 4.3
2018-Apr-11 22:56N 34°39' E 137°01'91 8.5
2018-Apr-11 12:12N 34°32' E 138°51'1 6.9
2018-Apr-11 12:00N 34°32' E 138°53'4 6.5
2018-Apr-11 11:27N 34°33' E 138°57'5 6.6
2018-Apr-11 10:44N 34°36' E 139°01'4 6.8
2018-Apr-11 10:07N 34°39' E 139°05'1 6.8
2018-Apr-11 09:59N 34°39' E 139°06'26 7.7
2018-Apr-11 06:34N 34°57' E 139°29'1 8.0
2018-Apr-11 06:25N 34°58' E 139°30'3 8.0
2018-Apr-11 06:00N 35°00' E 139°33'4 8.6
2018-Apr-11 05:30N 35°03' E 139°37'5 9.3
2018-Apr-11 05:00N 35°06' E 139°41'5 9.1
2018-Apr-11 04:30N 35°09' E 139°45'5 9.4
2018-Apr-11 04:00N 35°14' E 139°46'510.1
2018-Apr-11 03:30N 35°19' E 139°44'510.0
2018-Apr-11 03:00N 35°24' E 139°43'510.5
2018-Apr-11 02:30N 35°28' E 139°46'3 5.5
2018-Apr-11 02:00N 35°30' E 139°44'1 2.2
2018-Apr-11 01:30N 35°30' E 139°43'0 0.0
2018-Apr-11 01:00N 35°30' E 139°43'0 0.0
2018-Apr-11 00:30N 35°30' E 139°43'0 0.0
2018-Apr-11 00:00N 35°30' E 139°43'0 0.0
2018-Apr-10 23:30N 35°30' E 139°43'0 0.0
2018-Apr-10 23:00N 35°30' E 139°43'0 0.0
2018-Apr-10 22:30N 35°30' E 139°43'0 0.0
2018-Apr-10 22:00N 35°30' E 139°43'0 0.0
2018-Apr-10 21:30N 35°30' E 139°43'0 0.8
2018-Apr-10 21:00N 35°30' E 139°43'3 6.4
2018-Apr-10 20:30N 35°27' E 139°43'  

Dump ship's entire track history